sensor_id;sensor_type;location;lat;lon;timestamp;pressure;altitude;pressure_sealevel;temperature;humidity
81641;BME280;71053;50.722;-1.944;2023-07-30T00:01:41;100631.03;;;17.73;74.91
81641;BME280;71053;50.722;-1.944;2023-07-30T00:04:06;100632.27;;;17.38;75.03
81641;BME280;71053;50.722;-1.944;2023-07-30T00:06:31;100630.22;;;17.56;74.23
81641;BME280;71053;50.722;-1.944;2023-07-30T00:08:56;100629.40;;;17.71;73.85
81641;BME280;71053;50.722;-1.944;2023-07-30T00:11:21;100635.34;;;17.90;74.28
81641;BME280;71053;50.722;-1.944;2023-07-30T00:13:46;100635.49;;;17.90;72.27
81641;BME280;71053;50.722;-1.944;2023-07-30T00:16:12;100631.26;;;18.07;72.20
81641;BME280;71053;50.722;-1.944;2023-07-30T00:18:37;100627.45;;;17.87;73.04
81641;BME280;71053;50.722;-1.944;2023-07-30T00:21:02;100628.06;;;18.03;73.59
81641;BME280;71053;50.722;-1.944;2023-07-30T00:23:27;100624.02;;;17.67;73.33
81641;BME280;71053;50.722;-1.944;2023-07-30T00:25:52;100620.33;;;17.66;73.04
81641;BME280;71053;50.722;-1.944;2023-07-30T00:28:17;100623.70;;;17.89;73.56
81641;BME280;71053;50.722;-1.944;2023-07-30T00:30:42;100621.88;;;17.78;73.20
81641;BME280;71053;50.722;-1.944;2023-07-30T00:33:08;100626.31;;;17.97;74.28
81641;BME280;71053;50.722;-1.944;2023-07-30T00:35:33;100626.36;;;18.03;72.63
81641;BME280;71053;50.722;-1.944;2023-07-30T00:37:58;100625.04;;;17.81;73.23
81641;BME280;71053;50.722;-1.944;2023-07-30T00:40:23;100626.23;;;17.56;74.20
81641;BME280;71053;50.722;-1.944;2023-07-30T00:42:48;100625.54;;;17.72;74.61
81641;BME280;71053;50.722;-1.944;2023-07-30T00:45:13;100626.74;;;17.59;74.80
81641;BME280;71053;50.722;-1.944;2023-07-30T00:47:38;100624.54;;;17.26;76.51
81641;BME280;71053;50.722;-1.944;2023-07-30T00:50:05;100625.73;;;17.57;75.98
81641;BME280;71053;50.722;-1.944;2023-07-30T00:52:30;100624.03;;;17.63;76.74
81641;BME280;71053;50.722;-1.944;2023-07-30T00:54:56;100625.11;;;17.69;75.75
81641;BME280;71053;50.722;-1.944;2023-07-30T00:57:20;100627.34;;;17.75;75.61
81641;BME280;71053;50.722;-1.944;2023-07-30T00:59:44;100630.15;;;17.72;76.40
81641;BME280;71053;50.722;-1.944;2023-07-30T01:02:10;100636.70;;;17.82;75.47
81641;BME280;71053;50.722;-1.944;2023-07-30T01:04:36;100640.59;;;17.85;75.08
81641;BME280;71053;50.722;-1.944;2023-07-30T01:07:01;100643.55;;;17.90;75.38
81641;BME280;71053;50.722;-1.944;2023-07-30T01:09:25;100640.49;;;17.48;77.01
81641;BME280;71053;50.722;-1.944;2023-07-30T01:11:51;100638.48;;;17.64;76.92
81641;BME280;71053;50.722;-1.944;2023-07-30T01:14:16;100642.39;;;17.89;76.41
81641;BME280;71053;50.722;-1.944;2023-07-30T01:16:40;100639.83;;;17.90;76.65
81641;BME280;71053;50.722;-1.944;2023-07-30T01:19:06;100646.16;;;17.55;77.27
81641;BME280;71053;50.722;-1.944;2023-07-30T01:21:31;100646.46;;;17.89;77.31
81641;BME280;71053;50.722;-1.944;2023-07-30T01:23:55;100643.76;;;17.47;78.06
81641;BME280;71053;50.722;-1.944;2023-07-30T01:26:26;100645.09;;;17.69;78.15
81641;BME280;71053;50.722;-1.944;2023-07-30T01:28:49;100653.60;;;17.40;78.45
81641;BME280;71053;50.722;-1.944;2023-07-30T01:31:14;100656.25;;;17.36;78.40
81641;BME280;71053;50.722;-1.944;2023-07-30T01:33:37;100656.81;;;17.62;77.75
81641;BME280;71053;50.722;-1.944;2023-07-30T01:36:02;100653.71;;;17.60;77.59
81641;BME280;71053;50.722;-1.944;2023-07-30T01:38:27;100657.05;;;17.56;77.54
81641;BME280;71053;50.722;-1.944;2023-07-30T01:40:52;100655.74;;;17.50;77.51
81641;BME280;71053;50.722;-1.944;2023-07-30T01:43:17;100662.35;;;17.46;77.69
81641;BME280;71053;50.722;-1.944;2023-07-30T01:45:42;100658.01;;;17.35;77.94
81641;BME280;71053;50.722;-1.944;2023-07-30T01:48:08;100662.08;;;17.34;77.89
81641;BME280;71053;50.722;-1.944;2023-07-30T01:50:33;100658.40;;;17.35;77.62
81641;BME280;71053;50.722;-1.944;2023-07-30T01:52:58;100655.76;;;17.19;78.40
81641;BME280;71053;50.722;-1.944;2023-07-30T01:55:23;100663.20;;;17.25;77.42
81641;BME280;71053;50.722;-1.944;2023-07-30T01:57:48;100663.53;;;17.31;77.67
81641;BME280;71053;50.722;-1.944;2023-07-30T02:00:13;100666.66;;;17.35;77.11
81641;BME280;71053;50.722;-1.944;2023-07-30T02:02:38;100678.15;;;17.20;77.29
81641;BME280;71053;50.722;-1.944;2023-07-30T02:05:04;100680.47;;;17.32;77.61
81641;BME280;71053;50.722;-1.944;2023-07-30T02:07:29;100678.56;;;17.48;77.23
81641;BME280;71053;50.722;-1.944;2023-07-30T02:09:54;100680.63;;;17.43;76.53
81641;BME280;71053;50.722;-1.944;2023-07-30T02:12:19;100680.04;;;17.66;76.83
81641;BME280;71053;50.722;-1.944;2023-07-30T02:14:44;100680.74;;;17.43;76.23
81641;BME280;71053;50.722;-1.944;2023-07-30T02:17:09;100683.73;;;17.66;75.15
81641;BME280;71053;50.722;-1.944;2023-07-30T02:19:34;100684.27;;;17.53;75.93
81641;BME280;71053;50.722;-1.944;2023-07-30T02:22:00;100684.51;;;17.24;76.07
81641;BME280;71053;50.722;-1.944;2023-07-30T02:24:25;100679.45;;;17.49;77.25
81641;BME280;71053;50.722;-1.944;2023-07-30T02:26:50;100674.60;;;17.55;76.91
81641;BME280;71053;50.722;-1.944;2023-07-30T02:29:15;100676.08;;;17.68;75.66
81641;BME280;71053;50.722;-1.944;2023-07-30T02:31:40;100677.64;;;17.54;74.35
81641;BME280;71053;50.722;-1.944;2023-07-30T02:34:05;100678.59;;;17.48;74.96
81641;BME280;71053;50.722;-1.944;2023-07-30T02:36:30;100684.22;;;17.64;75.17
81641;BME280;71053;50.722;-1.944;2023-07-30T02:38:56;100682.53;;;17.64;74.87
81641;BME280;71053;50.722;-1.944;2023-07-30T02:41:21;100680.13;;;17.56;74.73
81641;BME280;71053;50.722;-1.944;2023-07-30T02:43:46;100677.03;;;17.17;74.63
81641;BME280;71053;50.722;-1.944;2023-07-30T02:46:11;100682.78;;;17.24;75.38
81641;BME280;71053;50.722;-1.944;2023-07-30T02:48:36;100677.31;;;17.43;74.62
81641;BME280;71053;50.722;-1.944;2023-07-30T02:51:02;100674.38;;;17.49;73.99
81641;BME280;71053;50.722;-1.944;2023-07-30T02:53:27;100675.05;;;17.35;73.97
81641;BME280;71053;50.722;-1.944;2023-07-30T02:55:52;100674.55;;;17.45;74.98
81641;BME280;71053;50.722;-1.944;2023-07-30T02:58:17;100681.26;;;17.15;74.23
81641;BME280;71053;50.722;-1.944;2023-07-30T03:00:42;100675.00;;;17.18;74.14
81641;BME280;71053;50.722;-1.944;2023-07-30T03:03:07;100673.60;;;17.18;75.53
81641;BME280;71053;50.722;-1.944;2023-07-30T03:05:33;100678.33;;;16.80;75.40
81641;BME280;71053;50.722;-1.944;2023-07-30T03:07:58;100679.56;;;17.04;77.07
81641;BME280;71053;50.722;-1.944;2023-07-30T03:10:23;100684.81;;;16.91;76.58
81641;BME280;71053;50.722;-1.944;2023-07-30T03:12:48;100688.83;;;17.12;77.84
81641;BME280;71053;50.722;-1.944;2023-07-30T03:15:13;100689.89;;;17.12;74.97
81641;BME280;71053;50.722;-1.944;2023-07-30T03:17:38;100686.20;;;17.24;75.73
81641;BME280;71053;50.722;-1.944;2023-07-30T03:20:05;100681.44;;;17.32;74.71
81641;BME280;71053;50.722;-1.944;2023-07-30T03:22:29;100680.98;;;17.48;74.74
81641;BME280;71053;50.722;-1.944;2023-07-30T03:24:54;100685.06;;;17.38;74.48
81641;BME280;71053;50.722;-1.944;2023-07-30T03:27:19;100684.05;;;17.53;74.78
81641;BME280;71053;50.722;-1.944;2023-07-30T03:29:44;100682.24;;;17.73;73.27
81641;BME280;71053;50.722;-1.944;2023-07-30T03:32:09;100686.29;;;17.53;73.91
81641;BME280;71053;50.722;-1.944;2023-07-30T03:34:35;100690.76;;;17.68;74.36
81641;BME280;71053;50.722;-1.944;2023-07-30T03:37:00;100693.94;;;17.55;74.06
81641;BME280;71053;50.722;-1.944;2023-07-30T03:39:25;100692.17;;;17.77;73.74
81641;BME280;71053;50.722;-1.944;2023-07-30T03:41:50;100690.76;;;17.66;74.70
81641;BME280;71053;50.722;-1.944;2023-07-30T03:44:15;100692.77;;;17.73;75.54
81641;BME280;71053;50.722;-1.944;2023-07-30T03:46:40;100697.72;;;17.59;73.11
81641;BME280;71053;50.722;-1.944;2023-07-30T03:49:06;100696.71;;;17.60;73.86
81641;BME280;71053;50.722;-1.944;2023-07-30T03:51:31;100698.98;;;17.62;74.25
81641;BME280;71053;50.722;-1.944;2023-07-30T03:53:56;100696.39;;;17.74;73.83
81641;BME280;71053;50.722;-1.944;2023-07-30T03:56:21;100698.99;;;17.66;73.64
81641;BME280;71053;50.722;-1.944;2023-07-30T03:58:46;100702.81;;;17.60;75.19
81641;BME280;71053;50.722;-1.944;2023-07-30T04:01:11;100706.64;;;17.51;75.02
81641;BME280;71053;50.722;-1.944;2023-07-30T04:03:37;100715.15;;;17.45;75.57
81641;BME280;71053;50.722;-1.944;2023-07-30T04:06:02;100721.75;;;17.37;75.86
81641;BME280;71053;50.722;-1.944;2023-07-30T04:08:27;100721.88;;;17.55;74.77
81641;BME280;71053;50.722;-1.944;2023-07-30T04:10:52;100722.75;;;17.44;75.57
81641;BME280;71053;50.722;-1.944;2023-07-30T04:13:17;100724.60;;;17.47;76.67
81641;BME280;71053;50.722;-1.944;2023-07-30T04:15:42;100727.29;;;17.50;75.58
81641;BME280;71053;50.722;-1.944;2023-07-30T04:18:08;100732.71;;;17.35;75.28
81641;BME280;71053;50.722;-1.944;2023-07-30T04:20:33;100736.78;;;16.91;77.06
81641;BME280;71053;50.722;-1.944;2023-07-30T04:22:59;100730.41;;;17.15;76.35
81641;BME280;71053;50.722;-1.944;2023-07-30T04:25:24;100727.63;;;17.18;76.57
81641;BME280;71053;50.722;-1.944;2023-07-30T04:27:49;100729.04;;;16.94;78.26
81641;BME280;71053;50.722;-1.944;2023-07-30T04:30:14;100731.92;;;16.91;77.89
81641;BME280;71053;50.722;-1.944;2023-07-30T04:32:39;100737.47;;;16.85;78.45
81641;BME280;71053;50.722;-1.944;2023-07-30T04:35:05;100735.61;;;16.90;77.73
81641;BME280;71053;50.722;-1.944;2023-07-30T04:37:30;100738.20;;;16.77;80.38
81641;BME280;71053;50.722;-1.944;2023-07-30T04:39:56;100740.18;;;16.88;78.42
81641;BME280;71053;50.722;-1.944;2023-07-30T04:42:20;100738.02;;;16.87;78.85
81641;BME280;71053;50.722;-1.944;2023-07-30T04:44:45;100734.92;;;16.82;79.47
81641;BME280;71053;50.722;-1.944;2023-07-30T04:47:11;100735.72;;;16.60;79.89
81641;BME280;71053;50.722;-1.944;2023-07-30T04:49:36;100733.66;;;16.79;79.88
81641;BME280;71053;50.722;-1.944;2023-07-30T04:52:01;100737.97;;;16.75;79.87
81641;BME280;71053;50.722;-1.944;2023-07-30T04:54:26;100740.84;;;16.78;79.47
81641;BME280;71053;50.722;-1.944;2023-07-30T04:56:51;100743.38;;;16.69;80.61
81641;BME280;71053;50.722;-1.944;2023-07-30T04:59:16;100737.63;;;16.46;82.08
81641;BME280;71053;50.722;-1.944;2023-07-30T05:01:42;100741.08;;;16.62;81.05
81641;BME280;71053;50.722;-1.944;2023-07-30T05:04:07;100740.08;;;16.46;82.97
81641;BME280;71053;50.722;-1.944;2023-07-30T05:06:33;100739.43;;;16.35;82.70
81641;BME280;71053;50.722;-1.944;2023-07-30T05:08:58;100745.68;;;16.49;82.27
81641;BME280;71053;50.722;-1.944;2023-07-30T05:11:23;100747.35;;;16.54;81.75
81641;BME280;71053;50.722;-1.944;2023-07-30T05:13:48;100744.82;;;16.58;81.99
81641;BME280;71053;50.722;-1.944;2023-07-30T05:16:13;100744.00;;;16.61;81.80
81641;BME280;71053;50.722;-1.944;2023-07-30T05:18:39;100740.81;;;16.66;82.38
81641;BME280;71053;50.722;-1.944;2023-07-30T05:21:04;100744.99;;;16.75;81.90
81641;BME280;71053;50.722;-1.944;2023-07-30T05:23:29;100745.90;;;16.81;80.85
81641;BME280;71053;50.722;-1.944;2023-07-30T05:25:55;100743.84;;;16.78;80.98
81641;BME280;71053;50.722;-1.944;2023-07-30T05:28:20;100742.79;;;16.77;80.85
81641;BME280;71053;50.722;-1.944;2023-07-30T05:30:46;100739.04;;;16.79;81.15
81641;BME280;71053;50.722;-1.944;2023-07-30T05:33:11;100738.87;;;16.75;81.97
81641;BME280;71053;50.722;-1.944;2023-07-30T05:35:36;100741.14;;;16.67;81.13
81641;BME280;71053;50.722;-1.944;2023-07-30T05:38:01;100743.93;;;16.63;81.28
81641;BME280;71053;50.722;-1.944;2023-07-30T05:40:26;100741.25;;;16.85;81.01
81641;BME280;71053;50.722;-1.944;2023-07-30T05:42:52;100743.04;;;16.79;80.47
81641;BME280;71053;50.722;-1.944;2023-07-30T05:45:17;100739.96;;;17.03;79.76
81641;BME280;71053;50.722;-1.944;2023-07-30T05:47:43;100744.14;;;17.10;79.86
81641;BME280;71053;50.722;-1.944;2023-07-30T05:50:08;100744.25;;;17.09;79.40
81641;BME280;71053;50.722;-1.944;2023-07-30T05:52:34;100752.35;;;16.67;80.76
81641;BME280;71053;50.722;-1.944;2023-07-30T05:54:59;100752.06;;;16.82;80.48
81641;BME280;71053;50.722;-1.944;2023-07-30T05:57:24;100753.33;;;16.81;81.71
81641;BME280;71053;50.722;-1.944;2023-07-30T05:59:49;100751.96;;;17.01;79.54
81641;BME280;71053;50.722;-1.944;2023-07-30T06:02:15;100747.51;;;17.05;79.85
81641;BME280;71053;50.722;-1.944;2023-07-30T06:04:40;100748.37;;;17.05;79.95
81641;BME280;71053;50.722;-1.944;2023-07-30T06:07:05;100742.49;;;17.12;79.82
81641;BME280;71053;50.722;-1.944;2023-07-30T06:09:30;100751.38;;;16.81;80.36
81641;BME280;71053;50.722;-1.944;2023-07-30T06:11:56;100756.05;;;17.02;79.30
81641;BME280;71053;50.722;-1.944;2023-07-30T06:14:21;100763.91;;;17.01;79.55
81641;BME280;71053;50.722;-1.944;2023-07-30T06:16:46;100770.87;;;17.01;79.65
81641;BME280;71053;50.722;-1.944;2023-07-30T06:19:11;100767.93;;;17.11;79.05
81641;BME280;71053;50.722;-1.944;2023-07-30T06:21:36;100765.64;;;17.19;79.86
81641;BME280;71053;50.722;-1.944;2023-07-30T06:24:01;100767.29;;;17.27;79.33
81641;BME280;71053;50.722;-1.944;2023-07-30T06:26:27;100775.19;;;17.17;79.15
81641;BME280;71053;50.722;-1.944;2023-07-30T06:28:52;100778.67;;;17.46;78.79
81641;BME280;71053;50.722;-1.944;2023-07-30T06:31:18;100779.93;;;17.51;78.46
81641;BME280;71053;50.722;-1.944;2023-07-30T06:33:43;100781.09;;;17.69;78.07
81641;BME280;71053;50.722;-1.944;2023-07-30T06:36:08;100771.35;;;17.41;78.62
81641;BME280;71053;50.722;-1.944;2023-07-30T06:38:33;100781.16;;;17.55;78.44
81641;BME280;71053;50.722;-1.944;2023-07-30T06:40:58;100774.31;;;17.43;78.98
81641;BME280;71053;50.722;-1.944;2023-07-30T06:43:23;100780.25;;;17.40;78.55
81641;BME280;71053;50.722;-1.944;2023-07-30T06:45:49;100780.64;;;17.43;78.28
81641;BME280;71053;50.722;-1.944;2023-07-30T06:48:14;100779.90;;;17.35;78.56
81641;BME280;71053;50.722;-1.944;2023-07-30T06:50:39;100778.05;;;17.29;78.40
81641;BME280;71053;50.722;-1.944;2023-07-30T06:53:04;100784.05;;;17.45;78.35
81641;BME280;71053;50.722;-1.944;2023-07-30T06:55:29;100780.07;;;17.52;78.22
81641;BME280;71053;50.722;-1.944;2023-07-30T06:57:54;100768.04;;;17.74;78.14
81641;BME280;71053;50.722;-1.944;2023-07-30T07:00:19;100768.94;;;17.64;78.75
81641;BME280;71053;50.722;-1.944;2023-07-30T07:02:45;100768.89;;;17.83;77.90
81641;BME280;71053;50.722;-1.944;2023-07-30T07:05:11;100771.53;;;17.74;78.50
81641;BME280;71053;50.722;-1.944;2023-07-30T07:07:36;100780.51;;;17.49;79.76
81641;BME280;71053;50.722;-1.944;2023-07-30T07:10:01;100785.32;;;17.58;79.79
81641;BME280;71053;50.722;-1.944;2023-07-30T07:12:26;100788.36;;;17.57;79.93
81641;BME280;71053;50.722;-1.944;2023-07-30T07:14:52;100781.18;;;17.70;79.13
81641;BME280;71053;50.722;-1.944;2023-07-30T07:17:17;100786.27;;;17.64;79.30
81641;BME280;71053;50.722;-1.944;2023-07-30T07:19:42;100784.20;;;17.79;78.76
81641;BME280;71053;50.722;-1.944;2023-07-30T07:22:07;100786.47;;;17.69;79.39
81641;BME280;71053;50.722;-1.944;2023-07-30T07:24:32;100788.98;;;17.58;79.40
81641;BME280;71053;50.722;-1.944;2023-07-30T07:26:58;100791.51;;;17.51;79.71
81641;BME280;71053;50.722;-1.944;2023-07-30T07:29:23;100789.84;;;17.41;80.36
81641;BME280;71053;50.722;-1.944;2023-07-30T07:31:48;100785.17;;;17.46;80.10
81641;BME280;71053;50.722;-1.944;2023-07-30T07:34:13;100787.22;;;17.38;80.50
81641;BME280;71053;50.722;-1.944;2023-07-30T07:36:39;100796.43;;;17.26;80.60
81641;BME280;71053;50.722;-1.944;2023-07-30T07:39:04;100792.12;;;17.47;80.67
81641;BME280;71053;50.722;-1.944;2023-07-30T07:41:29;100789.10;;;17.58;80.33
81641;BME280;71053;50.722;-1.944;2023-07-30T07:43:54;100795.11;;;17.46;80.64
81641;BME280;71053;50.722;-1.944;2023-07-30T07:46:20;100789.26;;;17.53;81.17
81641;BME280;71053;50.722;-1.944;2023-07-30T07:48:45;100800.55;;;17.52;81.05
81641;BME280;71053;50.722;-1.944;2023-07-30T07:51:12;100801.75;;;17.10;81.78
81641;BME280;71053;50.722;-1.944;2023-07-30T07:53:37;100814.52;;;17.20;81.76
81641;BME280;71053;50.722;-1.944;2023-07-30T07:56:02;100814.25;;;16.98;81.71
81641;BME280;71053;50.722;-1.944;2023-07-30T07:58:27;100818.51;;;16.89;82.65
81641;BME280;71053;50.722;-1.944;2023-07-30T08:00:54;100821.06;;;17.09;82.46
81641;BME280;71053;50.722;-1.944;2023-07-30T08:03:18;100821.30;;;17.17;82.44
81641;BME280;71053;50.722;-1.944;2023-07-30T08:05:44;100822.05;;;16.89;83.91
81641;BME280;71053;50.722;-1.944;2023-07-30T08:08:09;100815.30;;;16.96;83.59
81641;BME280;71053;50.722;-1.944;2023-07-30T08:10:38;100821.25;;;16.94;83.20
81641;BME280;71053;50.722;-1.944;2023-07-30T08:13:00;100818.41;;;16.73;83.22
81641;BME280;71053;50.722;-1.944;2023-07-30T08:15:25;100817.77;;;17.06;82.49
81641;BME280;71053;50.722;-1.944;2023-07-30T08:17:51;100814.43;;;17.15;83.63
81641;BME280;71053;50.722;-1.944;2023-07-30T08:20:16;100811.05;;;17.12;84.08
81641;BME280;71053;50.722;-1.944;2023-07-30T08:22:42;100807.47;;;17.34;83.52
81641;BME280;71053;50.722;-1.944;2023-07-30T08:25:08;100808.24;;;17.11;84.69
81641;BME280;71053;50.722;-1.944;2023-07-30T08:27:33;100810.33;;;17.18;85.01
81641;BME280;71053;50.722;-1.944;2023-07-30T08:29:59;100815.02;;;17.22;85.62
81641;BME280;71053;50.722;-1.944;2023-07-30T08:32:24;100812.64;;;17.34;85.27
81641;BME280;71053;50.722;-1.944;2023-07-30T08:34:50;100817.02;;;17.25;86.46
81641;BME280;71053;50.722;-1.944;2023-07-30T08:37:16;100814.10;;;17.00;87.87
81641;BME280;71053;50.722;-1.944;2023-07-30T08:39:41;100807.58;;;16.88;87.90
81641;BME280;71053;50.722;-1.944;2023-07-30T08:42:07;100814.18;;;17.12;87.08
81641;BME280;71053;50.722;-1.944;2023-07-30T08:44:32;100812.94;;;17.04;88.43
81641;BME280;71053;50.722;-1.944;2023-07-30T08:46:58;100804.36;;;17.25;87.64
81641;BME280;71053;50.722;-1.944;2023-07-30T08:49:23;100807.40;;;17.28;87.55
81641;BME280;71053;50.722;-1.944;2023-07-30T08:51:52;100801.38;;;16.95;90.31
81641;BME280;71053;50.722;-1.944;2023-07-30T08:54:14;100800.65;;;16.91;90.41
81641;BME280;71053;50.722;-1.944;2023-07-30T08:56:39;100801.56;;;16.97;90.03
81641;BME280;71053;50.722;-1.944;2023-07-30T08:59:05;100796.29;;;16.98;90.64
81641;BME280;71053;50.722;-1.944;2023-07-30T09:01:35;100799.15;;;16.99;90.86
81641;BME280;71053;50.722;-1.944;2023-07-30T09:03:57;100797.74;;;16.75;92.53
81641;BME280;71053;50.722;-1.944;2023-07-30T09:06:21;100792.72;;;16.76;92.39
81641;BME280;71053;50.722;-1.944;2023-07-30T09:08:46;100789.59;;;16.86;92.43
81641;BME280;71053;50.722;-1.944;2023-07-30T09:11:12;100789.60;;;17.08;91.59
81641;BME280;71053;50.722;-1.944;2023-07-30T09:13:38;100789.26;;;16.98;92.28
81641;BME280;71053;50.722;-1.944;2023-07-30T09:16:08;100779.73;;;17.33;89.98
81641;BME280;71053;50.722;-1.944;2023-07-30T09:18:27;100784.97;;;17.12;91.20
81641;BME280;71053;50.722;-1.944;2023-07-30T09:20:53;100780.08;;;17.14;91.33
81641;BME280;71053;50.722;-1.944;2023-07-30T09:23:18;100775.20;;;17.32;90.71
81641;BME280;71053;50.722;-1.944;2023-07-30T09:25:47;100776.69;;;16.95;92.83
81641;BME280;71053;50.722;-1.944;2023-07-30T09:28:10;100774.49;;;17.12;92.15
81641;BME280;71053;50.722;-1.944;2023-07-30T09:30:35;100775.10;;;17.06;93.24
81641;BME280;71053;50.722;-1.944;2023-07-30T09:33:00;100766.64;;;17.33;91.42
81641;BME280;71053;50.722;-1.944;2023-07-30T09:35:26;100762.02;;;17.27;92.40
81641;BME280;71053;50.722;-1.944;2023-07-30T09:37:58;100760.27;;;17.16;93.30
81641;BME280;71053;50.722;-1.944;2023-07-30T09:40:17;100757.38;;;17.11;94.69
81641;BME280;71053;50.722;-1.944;2023-07-30T09:42:43;100758.09;;;17.21;94.52
81641;BME280;71053;50.722;-1.944;2023-07-30T09:45:09;100756.48;;;17.09;96.31
81641;BME280;71053;50.722;-1.944;2023-07-30T09:47:33;100754.00;;;17.28;95.93
81641;BME280;71053;50.722;-1.944;2023-07-30T09:49:58;100752.09;;;17.56;95.12
81641;BME280;71053;50.722;-1.944;2023-07-30T09:52:23;100750.76;;;17.64;95.25
81641;BME280;71053;50.722;-1.944;2023-07-30T09:54:49;100745.77;;;17.83;92.97
81641;BME280;71053;50.722;-1.944;2023-07-30T09:57:14;100748.67;;;17.96;93.19
81641;BME280;71053;50.722;-1.944;2023-07-30T09:59:39;100750.61;;;18.05;93.07
81641;BME280;71053;50.722;-1.944;2023-07-30T10:02:05;100752.74;;;18.00;92.38
81641;BME280;71053;50.722;-1.944;2023-07-30T10:04:31;100757.35;;;18.15;92.20
81641;BME280;71053;50.722;-1.944;2023-07-30T10:06:58;100764.04;;;18.18;92.19
81641;BME280;71053;50.722;-1.944;2023-07-30T10:09:21;100766.55;;;18.29;92.21
81641;BME280;71053;50.722;-1.944;2023-07-30T10:11:46;100761.71;;;18.26;92.27
81641;BME280;71053;50.722;-1.944;2023-07-30T10:14:12;100763.20;;;18.28;92.30
81641;BME280;71053;50.722;-1.944;2023-07-30T10:16:36;100759.24;;;18.21;93.71
81641;BME280;71053;50.722;-1.944;2023-07-30T10:19:02;100765.73;;;18.20;94.23
81641;BME280;71053;50.722;-1.944;2023-07-30T10:21:27;100765.13;;;18.36;94.08
81641;BME280;71053;50.722;-1.944;2023-07-30T10:23:58;100773.48;;;18.34;93.88
81641;BME280;71053;50.722;-1.944;2023-07-30T10:26:26;100773.83;;;18.38;93.76
81641;BME280;71053;50.722;-1.944;2023-07-30T10:28:43;100778.05;;;18.08;95.45
81641;BME280;71053;50.722;-1.944;2023-07-30T10:31:08;100777.75;;;18.03;95.25
81641;BME280;71053;50.722;-1.944;2023-07-30T10:33:44;100778.65;;;18.16;94.78
81641;BME280;71053;50.722;-1.944;2023-07-30T10:35:58;100772.87;;;18.35;93.35
81641;BME280;71053;50.722;-1.944;2023-07-30T10:38:28;100777.53;;;18.13;94.00
81641;BME280;71053;50.722;-1.944;2023-07-30T10:41:00;100774.27;;;18.20;93.70
81641;BME280;71053;50.722;-1.944;2023-07-30T10:43:15;100776.05;;;18.15;93.50
81641;BME280;71053;50.722;-1.944;2023-07-30T10:45:48;100781.65;;;18.17;93.36
81641;BME280;71053;50.722;-1.944;2023-07-30T10:48:04;100782.02;;;18.05;94.44
81641;BME280;71053;50.722;-1.944;2023-07-30T10:50:29;100789.59;;;17.92;94.44
81641;BME280;71053;50.722;-1.944;2023-07-30T10:52:55;100787.33;;;17.98;94.98
81641;BME280;71053;50.722;-1.944;2023-07-30T10:55:20;100783.01;;;17.87;96.52
81641;BME280;71053;50.722;-1.944;2023-07-30T10:57:45;100784.54;;;18.03;95.95
81641;BME280;71053;50.722;-1.944;2023-07-30T11:00:11;100785.56;;;18.12;95.22
81641;BME280;71053;50.722;-1.944;2023-07-30T11:02:35;100784.68;;;18.21;95.17
81641;BME280;71053;50.722;-1.944;2023-07-30T11:05:12;100789.54;;;18.01;95.81
81641;BME280;71053;50.722;-1.944;2023-07-30T11:07:27;100789.52;;;17.95;95.80
81641;BME280;71053;50.722;-1.944;2023-07-30T11:09:59;100793.48;;;17.98;95.88
81641;BME280;71053;50.722;-1.944;2023-07-30T11:12:17;100792.00;;;17.94;96.31
81641;BME280;71053;50.722;-1.944;2023-07-30T11:14:43;100796.54;;;17.83;96.44
81641;BME280;71053;50.722;-1.944;2023-07-30T11:17:08;100790.22;;;17.81;96.91
81641;BME280;71053;50.722;-1.944;2023-07-30T11:19:33;100787.11;;;17.86;96.44
81641;BME280;71053;50.722;-1.944;2023-07-30T11:21:59;100790.75;;;17.87;96.17
81641;BME280;71053;50.722;-1.944;2023-07-30T11:24:34;100786.72;;;18.02;95.38
81641;BME280;71053;50.722;-1.944;2023-07-30T11:26:57;100786.08;;;17.92;95.54
81641;BME280;71053;50.722;-1.944;2023-07-30T11:29:15;100785.51;;;17.98;95.09
81641;BME280;71053;50.722;-1.944;2023-07-30T11:31:41;100782.42;;;17.81;96.11
81641;BME280;71053;50.722;-1.944;2023-07-30T11:34:06;100784.41;;;17.78;96.57
81641;BME280;71053;50.722;-1.944;2023-07-30T11:36:31;100787.10;;;17.87;96.50
81641;BME280;71053;50.722;-1.944;2023-07-30T11:38:57;100791.33;;;17.83;96.89
81641;BME280;71053;50.722;-1.944;2023-07-30T11:41:23;100795.58;;;18.00;95.67
81641;BME280;71053;50.722;-1.944;2023-07-30T11:43:47;100786.98;;;17.80;95.61
81641;BME280;71053;50.722;-1.944;2023-07-30T11:46:14;100793.66;;;17.79;95.82
81641;BME280;71053;50.722;-1.944;2023-07-30T11:48:39;100787.52;;;18.00;95.35
81641;BME280;71053;50.722;-1.944;2023-07-30T11:51:04;100794.21;;;18.10;95.10
81641;BME280;71053;50.722;-1.944;2023-07-30T11:53:45;100798.36;;;18.06;95.19
81641;BME280;71053;50.722;-1.944;2023-07-30T11:55:55;100792.64;;;18.22;94.36
81641;BME280;71053;50.722;-1.944;2023-07-30T11:58:20;100789.11;;;18.04;94.53
81641;BME280;71053;50.722;-1.944;2023-07-30T12:00:46;100791.17;;;18.23;93.42
81641;BME280;71053;50.722;-1.944;2023-07-30T12:03:11;100785.21;;;18.33;93.25
81641;BME280;71053;50.722;-1.944;2023-07-30T12:05:38;100792.61;;;18.22;93.18
81641;BME280;71053;50.722;-1.944;2023-07-30T12:08:02;100796.94;;;18.26;92.71
81641;BME280;71053;50.722;-1.944;2023-07-30T12:10:27;100794.34;;;18.28;92.84
81641;BME280;71053;50.722;-1.944;2023-07-30T12:12:52;100795.69;;;18.19;93.74
81641;BME280;71053;50.722;-1.944;2023-07-30T12:15:18;100796.61;;;18.23;92.64
81641;BME280;71053;50.722;-1.944;2023-07-30T12:17:44;100792.51;;;18.09;92.68
81641;BME280;71053;50.722;-1.944;2023-07-30T12:20:11;100787.17;;;18.19;92.71
81641;BME280;71053;50.722;-1.944;2023-07-30T12:22:35;100798.56;;;18.31;91.85
81641;BME280;71053;50.722;-1.944;2023-07-30T12:25:01;100789.51;;;18.38;92.21
81641;BME280;71053;50.722;-1.944;2023-07-30T12:27:26;100790.73;;;18.17;92.30
81641;BME280;71053;50.722;-1.944;2023-07-30T12:29:51;100797.29;;;18.27;92.65